createdAt,value
2023-10-06T00:02:29.973Z,2.57
2023-10-06T00:04:59.548Z,2.10
2023-10-06T00:07:28.548Z,3.37
2023-10-06T00:09:57.892Z,2.10
2023-10-06T00:12:27.818Z,2.27
2023-10-06T00:14:59.654Z,2.00
2023-10-06T00:17:35.098Z,2.50
2023-10-06T00:20:07.121Z,2.30
2023-10-06T00:22:38.990Z,2.60
2023-10-06T00:25:19.639Z,2.90
2023-10-06T00:27:48.264Z,2.07
2023-10-06T00:30:21.353Z,2.60
2023-10-06T00:32:51.975Z,2.13
2023-10-06T00:35:32.637Z,2.40
2023-10-06T00:38:14.323Z,3.27
2023-10-06T00:40:46.110Z,2.30
2023-10-06T00:43:18.038Z,2.67
2023-10-06T00:45:49.596Z,1.43
2023-10-06T00:48:19.997Z,2.23
2023-10-06T00:50:50.874Z,2.70
2023-10-06T00:53:22.057Z,1.60
2023-10-06T00:55:51.113Z,2.00
2023-10-06T00:58:20.590Z,2.60
2023-10-06T01:00:52.239Z,2.13
2023-10-06T01:03:22.357Z,1.80
2023-10-06T01:05:51.129Z,2.00
2023-10-06T01:08:22.302Z,1.93
2023-10-06T01:10:52.405Z,2.43
2023-10-06T01:13:22.031Z,2.20
2023-10-06T01:15:51.084Z,2.37
2023-10-06T01:18:26.948Z,2.20
2023-10-06T01:20:57.156Z,2.10
2023-10-06T01:23:29.378Z,1.87
2023-10-06T01:26:01.504Z,2.40
2023-10-06T01:28:36.078Z,2.20
2023-10-06T01:31:08.138Z,2.50
2023-10-06T01:33:36.989Z,2.13
2023-10-06T01:36:15.236Z,2.20
2023-10-06T01:38:45.814Z,2.40
2023-10-06T01:41:14.428Z,2.17
2023-10-06T01:43:43.446Z,2.07
2023-10-06T01:46:15.508Z,2.00
2023-10-06T01:48:46.176Z,2.30
2023-10-06T01:51:16.269Z,2.63
2023-10-06T01:53:46.756Z,1.80
2023-10-06T01:56:15.578Z,1.70
2023-10-06T01:58:44.024Z,2.13
2023-10-06T02:01:19.791Z,2.70
2023-10-06T02:03:48.696Z,2.33
2023-10-06T02:06:18.137Z,2.27
2023-10-06T02:08:53.903Z,2.03
2023-10-06T02:11:30.147Z,1.60
2023-10-06T02:13:58.697Z,2.07
2023-10-06T02:16:28.857Z,2.00
2023-10-06T02:18:57.374Z,1.77
2023-10-06T02:21:30.473Z,2.10
2023-10-06T02:24:04.931Z,2.10
2023-10-06T02:26:37.172Z,2.27
2023-10-06T02:29:09.687Z,1.70
2023-10-06T02:31:37.720Z,2.40
2023-10-06T02:34:13.655Z,2.07
2023-10-06T02:36:43.276Z,2.50
2023-10-06T02:39:17.245Z,2.60
2023-10-06T02:41:47.631Z,2.10
2023-10-06T02:44:17.023Z,2.20
2023-10-06T02:46:46.660Z,1.70
2023-10-06T02:49:22.771Z,2.23
2023-10-06T02:51:51.268Z,2.13
2023-10-06T02:54:29.021Z,1.60
2023-10-06T02:56:57.866Z,1.93
2023-10-06T02:59:36.441Z,2.40
2023-10-06T03:02:14.657Z,2.03
2023-10-06T03:04:44.951Z,1.20
2023-10-06T03:07:16.337Z,2.43
2023-10-06T03:09:48.190Z,2.00
2023-10-06T03:12:28.108Z,3.40
2023-10-06T03:14:58.134Z,2.20
2023-10-06T03:17:27.848Z,1.90
2023-10-06T03:20:10.191Z,2.63
2023-10-06T03:22:40.472Z,2.27
2023-10-06T03:25:18.135Z,2.47
2023-10-06T03:27:50.805Z,2.10
2023-10-06T03:30:28.040Z,1.93
2023-10-06T03:32:58.626Z,2.60
2023-10-06T03:35:37.352Z,2.10
2023-10-06T03:38:28.991Z,1.87
2023-10-06T03:41:19.920Z,2.00
2023-10-06T03:43:54.321Z,2.20
2023-10-06T03:46:23.477Z,1.60
2023-10-06T03:48:52.270Z,2.30
2023-10-06T03:51:21.201Z,2.23
2023-10-06T03:53:53.845Z,1.87
2023-10-06T03:56:23.966Z,2.07
2023-10-06T03:58:52.846Z,2.23
2023-10-06T04:01:27.423Z,1.80
2023-10-06T04:03:59.665Z,2.27
2023-10-06T04:06:29.108Z,2.17
2023-10-06T04:08:58.568Z,1.80
2023-10-06T04:11:31.330Z,2.10
2023-10-06T04:14:09.530Z,2.17
2023-10-06T04:16:47.710Z,1.97
2023-10-06T04:19:25.323Z,2.37
2023-10-06T04:21:54.045Z,2.17
2023-10-06T04:24:22.709Z,1.83
2023-10-06T04:26:53.283Z,2.20
2023-10-06T04:29:27.215Z,3.07
2023-10-06T04:31:56.541Z,2.30
2023-10-06T04:34:49.289Z,1.77
2023-10-06T04:37:18.160Z,2.17
2023-10-06T04:39:46.746Z,1.90
2023-10-06T04:42:16.603Z,2.57
2023-10-06T04:44:49.573Z,1.97
2023-10-06T04:47:18.200Z,2.50
2023-10-06T04:49:47.334Z,1.90
2023-10-06T04:52:15.778Z,1.97
2023-10-06T04:54:44.368Z,2.47
2023-10-06T04:57:14.323Z,1.93
2023-10-06T04:59:45.289Z,1.70
2023-10-06T05:02:15.650Z,3.00
2023-10-06T05:04:44.188Z,2.30
2023-10-06T05:07:12.598Z,2.70
2023-10-06T05:09:41.357Z,2.20
2023-10-06T05:12:11.135Z,2.30
2023-10-06T05:14:40.250Z,2.30
2023-10-06T05:17:10.588Z,2.53
2023-10-06T05:19:40.215Z,2.60
2023-10-06T05:22:09.125Z,2.13
2023-10-06T05:24:37.622Z,1.90
2023-10-06T05:27:07.000Z,3.00
2023-10-06T05:29:37.164Z,2.27
2023-10-06T05:32:05.785Z,2.27
2023-10-06T05:34:36.194Z,2.40
2023-10-06T05:37:05.848Z,2.10
2023-10-06T05:39:35.206Z,1.80
2023-10-06T05:42:05.471Z,1.57
2023-10-06T05:44:37.395Z,1.97
2023-10-06T05:47:09.358Z,2.00
2023-10-06T05:49:40.265Z,2.77
2023-10-06T05:52:12.243Z,2.80
2023-10-06T05:54:43.991Z,2.17
2023-10-06T05:57:13.532Z,2.43
2023-10-06T05:59:42.210Z,3.10
2023-10-06T06:02:11.171Z,2.60
2023-10-06T06:04:43.006Z,2.53
2023-10-06T06:07:12.117Z,2.17
2023-10-06T06:09:40.616Z,2.63
2023-10-06T06:12:09.049Z,3.00
2023-10-06T06:14:45.648Z,1.77
2023-10-06T06:17:14.243Z,1.50
2023-10-06T06:19:44.425Z,2.33
2023-10-06T06:22:13.681Z,2.33
2023-10-06T06:24:42.137Z,2.03
2023-10-06T06:27:11.027Z,3.20
2023-10-06T06:29:40.116Z,2.83
2023-10-06T06:32:13.268Z,2.90
2023-10-06T06:34:43.827Z,3.40
2023-10-06T06:37:14.327Z,2.60
2023-10-06T06:39:45.655Z,3.23
2023-10-06T06:42:15.131Z,3.63
2023-10-06T06:44:49.203Z,3.27
2023-10-06T06:47:18.491Z,3.20
2023-10-06T06:49:49.657Z,3.60
2023-10-06T06:52:23.121Z,3.30
2023-10-06T06:54:51.777Z,2.80
2023-10-06T06:57:21.142Z,2.87
2023-10-06T06:59:50.717Z,3.93
2023-10-06T07:02:19.495Z,3.40
2023-10-06T07:04:48.558Z,3.70
2023-10-06T07:07:17.221Z,4.13
2023-10-06T07:09:47.955Z,3.23
2023-10-06T07:12:17.471Z,3.07
2023-10-06T07:14:46.161Z,2.13
2023-10-06T07:17:14.757Z,2.93
2023-10-06T07:19:43.563Z,3.23
2023-10-06T07:22:12.376Z,2.53
2023-10-06T07:24:41.563Z,2.10
2023-10-06T07:27:12.404Z,2.93
2023-10-06T07:29:40.784Z,2.33
2023-10-06T07:32:11.892Z,3.20
2023-10-06T07:34:46.307Z,1.90
2023-10-06T07:37:14.812Z,2.60
2023-10-06T07:39:43.597Z,2.20
2023-10-06T07:42:17.937Z,2.33
2023-10-06T07:44:48.675Z,2.53
2023-10-06T07:47:25.694Z,2.93
2023-10-06T07:49:54.403Z,2.40
2023-10-06T07:52:23.411Z,2.33
2023-10-06T07:54:52.033Z,2.80
2023-10-06T07:57:23.289Z,2.30
2023-10-06T07:59:51.971Z,2.27
2023-10-06T08:02:20.942Z,2.30
2023-10-06T08:04:49.567Z,2.70
2023-10-06T08:07:18.072Z,2.20
2023-10-06T08:09:46.987Z,1.90
2023-10-06T08:12:15.540Z,2.50
2023-10-06T08:14:45.429Z,2.67
2023-10-06T08:17:15.388Z,2.13
2023-10-06T08:19:44.064Z,2.40
2023-10-06T08:22:12.471Z,3.03
2023-10-06T08:24:41.014Z,2.90
2023-10-06T08:27:09.498Z,3.50
2023-10-06T08:29:38.112Z,3.30
2023-10-06T08:32:09.962Z,2.87
2023-10-06T08:34:40.647Z,2.43
2023-10-06T08:37:12.501Z,3.10
2023-10-06T08:39:48.862Z,2.73
2023-10-06T08:42:18.070Z,2.80
2023-10-06T08:44:48.207Z,2.70
2023-10-06T08:47:29.060Z,3.67
2023-10-06T08:50:02.293Z,3.70
2023-10-06T08:52:34.125Z,3.10
2023-10-06T08:55:03.252Z,2.70
2023-10-06T08:57:32.460Z,2.43
2023-10-06T09:00:01.337Z,2.53
2023-10-06T09:02:33.177Z,2.77
2023-10-06T09:05:01.943Z,2.60
2023-10-06T09:07:31.131Z,2.57
2023-10-06T09:10:00.547Z,3.17
2023-10-06T09:12:32.964Z,2.30
2023-10-06T09:15:01.955Z,2.07
2023-10-06T09:17:37.761Z,2.40
2023-10-06T09:20:20.182Z,2.33
2023-10-06T09:22:57.049Z,2.70
2023-10-06T09:25:26.054Z,2.90
2023-10-06T09:28:04.392Z,2.30
2023-10-06T09:30:33.341Z,2.17
2023-10-06T09:33:07.313Z,2.10
2023-10-06T09:35:35.840Z,2.33
2023-10-06T09:38:15.667Z,3.00
2023-10-06T09:40:47.645Z,2.90
2023-10-06T09:43:20.349Z,2.20
2023-10-06T09:45:53.918Z,2.17
2023-10-06T09:48:35.178Z,2.73
2023-10-06T09:51:08.994Z,2.47
2023-10-06T09:53:40.117Z,3.00
2023-10-06T09:56:11.312Z,2.33
2023-10-06T09:58:41.433Z,2.57
2023-10-06T10:01:11.708Z,1.67
2023-10-06T10:03:43.078Z,2.70
2023-10-06T10:06:11.972Z,2.00
2023-10-06T10:08:42.932Z,2.00
2023-10-06T10:11:15.505Z,1.97
2023-10-06T10:13:55.863Z,1.90
2023-10-06T10:16:30.120Z,2.13
2023-10-06T10:19:04.354Z,2.67
2023-10-06T10:21:35.608Z,2.27
2023-10-06T10:24:49.434Z,2.93
2023-10-06T10:26:56.558Z,2.83
2023-10-06T10:29:31.767Z,2.30
2023-10-06T10:32:03.388Z,2.40
2023-10-06T10:34:35.799Z,2.10
2023-10-06T10:37:20.827Z,2.37
2023-10-06T10:39:51.838Z,2.73
2023-10-06T10:42:24.356Z,1.70
2023-10-06T10:45:17.205Z,2.57
2023-10-06T10:47:46.751Z,2.57
2023-10-06T10:50:18.049Z,2.70
2023-10-06T10:52:56.114Z,2.60
2023-10-06T10:55:28.753Z,2.17
2023-10-06T10:57:58.643Z,2.13
2023-10-06T11:00:27.375Z,1.70
2023-10-06T11:03:11.209Z,1.80
2023-10-06T11:05:43.049Z,2.07
2023-10-06T11:08:12.290Z,2.80
2023-10-06T11:10:41.818Z,2.60
2023-10-06T11:13:19.687Z,2.23
2023-10-06T11:15:50.217Z,2.57
2023-10-06T11:18:21.774Z,1.97
2023-10-06T11:20:53.885Z,1.83
2023-10-06T11:23:25.026Z,2.10
2023-10-06T11:25:56.559Z,2.63
2023-10-06T11:28:25.825Z,2.53
2023-10-06T11:30:55.234Z,1.80
2023-10-06T11:33:31.565Z,1.60
2023-10-06T11:36:08.341Z,2.07
2023-10-06T11:38:37.509Z,2.20
2023-10-06T11:41:07.547Z,2.20
2023-10-06T11:43:45.085Z,2.20
2023-10-06T11:46:18.408Z,2.20
2023-10-06T11:48:51.814Z,1.97
2023-10-06T11:51:39.586Z,1.83
2023-10-06T11:54:10.840Z,1.97
2023-10-06T11:56:50.470Z,1.20
2023-10-06T11:59:23.813Z,1.40
2023-10-06T12:01:57.987Z,1.50
2023-10-06T12:04:31.957Z,1.53
2023-10-06T12:07:02.311Z,1.63
2023-10-06T12:09:39.712Z,1.60
2023-10-06T12:12:09.385Z,1.47
2023-10-06T12:14:38.117Z,1.70
2023-10-06T12:17:07.699Z,1.20
2023-10-06T12:19:38.416Z,1.77
2023-10-06T12:22:08.828Z,1.60
2023-10-06T12:24:39.679Z,2.00
2023-10-06T12:27:12.828Z,1.40
2023-10-06T12:29:41.487Z,1.70
2023-10-06T12:32:10.717Z,1.30
2023-10-06T12:34:39.624Z,1.57
2023-10-06T12:37:10.427Z,1.60
2023-10-06T12:42:25.545Z,1.50
2023-10-06T12:45:01.935Z,1.30
2023-10-06T12:47:32.557Z,1.33
2023-10-06T12:50:09.231Z,1.13
2023-10-06T12:52:38.892Z,1.10
2023-10-06T12:55:15.773Z,1.13
2023-10-06T12:57:44.801Z,1.40
2023-10-06T13:00:14.394Z,1.57
2023-10-06T13:02:46.786Z,1.60
2023-10-06T13:05:18.491Z,1.27
2023-10-06T13:07:50.071Z,1.10
2023-10-06T13:10:24.393Z,1.20
2023-10-06T13:12:53.439Z,0.83
2023-10-06T13:15:22.832Z,1.30
2023-10-06T13:17:52.220Z,1.20
2023-10-06T13:20:21.097Z,1.73
2023-10-06T13:22:50.330Z,1.20
2023-10-06T13:25:20.559Z,1.57
2023-10-06T13:27:50.010Z,1.27
2023-10-06T13:30:21.738Z,1.63
2023-10-06T13:32:54.221Z,1.20
2023-10-06T13:35:27.625Z,1.67
2023-10-06T13:37:56.567Z,1.77
2023-10-06T13:40:30.217Z,1.90
2023-10-06T13:42:59.738Z,1.43
2023-10-06T13:45:32.069Z,1.30
2023-10-06T13:48:15.325Z,0.97
2023-10-06T13:50:43.669Z,1.33
2023-10-06T13:53:11.972Z,1.20
2023-10-06T13:55:41.892Z,1.07
2023-10-06T13:58:10.206Z,1.40
2023-10-06T14:00:41.425Z,1.00
2023-10-06T14:03:10.330Z,1.23
2023-10-06T14:05:42.310Z,1.37
2023-10-06T14:08:12.555Z,1.10
2023-10-06T14:10:43.642Z,1.70
2023-10-06T14:13:18.294Z,1.20
2023-10-06T14:15:50.365Z,1.30
2023-10-06T14:18:21.188Z,1.60
2023-10-06T14:20:51.086Z,1.00
2023-10-06T14:23:25.240Z,1.50
2023-10-06T14:25:57.393Z,1.23
2023-10-06T14:28:26.200Z,1.67
2023-10-06T14:30:54.752Z,1.27
2023-10-06T14:33:39.780Z,1.40
2023-10-06T14:36:26.812Z,1.07
2023-10-06T14:39:14.734Z,1.43
2023-10-06T14:42:02.178Z,1.43
2023-10-06T14:44:56.435Z,1.30
2023-10-06T14:47:28.426Z,1.20
2023-10-06T14:49:59.975Z,1.50
2023-10-06T14:52:32.729Z,1.33
2023-10-06T14:55:01.807Z,1.70
2023-10-06T14:57:31.798Z,1.40
2023-10-06T15:00:00.305Z,1.43
2023-10-06T15:02:28.840Z,1.40
2023-10-06T15:04:57.389Z,1.90
2023-10-06T15:07:28.409Z,1.13
2023-10-06T15:10:11.552Z,1.70
2023-10-06T15:12:42.570Z,1.60
2023-10-06T15:15:18.251Z,1.23
2023-10-06T15:20:31.597Z,1.20
2023-10-06T15:23:00.300Z,1.47
2023-10-06T15:25:31.272Z,1.20
2023-10-06T15:28:04.363Z,2.13
2023-10-06T15:30:36.696Z,1.37
2023-10-06T15:33:05.931Z,1.00
2023-10-06T15:35:37.299Z,1.07
2023-10-06T15:38:11.585Z,1.17
2023-10-06T15:40:40.477Z,1.37
2023-10-06T15:43:19.982Z,1.73
2023-10-06T15:45:58.173Z,1.00
2023-10-06T15:48:26.696Z,1.57
2023-10-06T15:50:59.270Z,2.00
2023-10-06T15:53:29.651Z,1.80
2023-10-06T15:56:03.633Z,1.63
2023-10-06T15:58:35.368Z,1.47
2023-10-06T16:01:12.300Z,1.23
2023-10-06T16:03:42.063Z,1.27
2023-10-06T16:06:11.200Z,1.27
2023-10-06T16:08:45.340Z,1.30
2023-10-06T16:11:14.181Z,0.90
2023-10-06T16:13:47.105Z,2.17
2023-10-06T16:16:19.126Z,1.93
2023-10-06T16:18:53.588Z,1.30
2023-10-06T16:21:22.272Z,1.10
2023-10-06T16:23:52.683Z,1.30
2023-10-06T16:26:22.984Z,1.20
2023-10-06T16:28:53.348Z,1.40
2023-10-06T16:31:27.937Z,1.50
2023-10-06T16:33:56.795Z,1.70
2023-10-06T16:36:25.591Z,1.43
2023-10-06T16:38:56.781Z,1.70
2023-10-06T16:41:26.203Z,1.30
2023-10-06T16:43:58.264Z,1.57
2023-10-06T16:46:26.947Z,1.43
2023-10-06T16:48:55.402Z,1.03
2023-10-06T16:51:27.189Z,2.40
2023-10-06T16:53:55.804Z,1.50
2023-10-06T16:56:26.732Z,1.30
2023-10-06T16:58:57.206Z,1.77
2023-10-06T17:01:28.856Z,1.40
2023-10-06T17:04:05.981Z,1.93
2023-10-06T17:06:53.558Z,1.37
2023-10-06T17:09:32.526Z,1.77
2023-10-06T17:12:07.627Z,1.80
2023-10-06T17:14:37.563Z,1.80
2023-10-06T17:17:09.759Z,1.40
2023-10-06T17:19:38.694Z,2.43
2023-10-06T17:22:10.175Z,2.13
2023-10-06T17:24:38.854Z,1.93
2023-10-06T17:27:07.932Z,2.30
2023-10-06T17:29:37.342Z,1.73
2023-10-06T17:32:08.815Z,1.90
2023-10-06T17:34:37.741Z,1.83
2023-10-06T17:39:41.243Z,2.30
2023-10-06T17:42:12.195Z,2.23
2023-10-06T17:44:46.040Z,1.73
2023-10-06T17:47:17.252Z,2.13
2023-10-06T17:49:45.941Z,2.10
2023-10-06T17:52:14.750Z,1.87
2023-10-06T17:54:44.682Z,2.60
2023-10-06T17:57:29.545Z,3.90
2023-10-06T18:00:02.659Z,3.53
2023-10-06T18:02:52.547Z,2.63
2023-10-06T18:05:25.042Z,2.90
2023-10-06T18:10:39.174Z,3.70
2023-10-06T18:13:10.090Z,2.70
2023-10-06T18:15:40.937Z,2.80
2023-10-06T18:21:16.285Z,3.73
2023-10-06T18:23:45.501Z,3.30
2023-10-06T18:26:32.715Z,3.50
2023-10-06T18:29:15.623Z,2.90
2023-10-06T18:31:56.103Z,3.27
2023-10-06T18:34:26.914Z,2.33
2023-10-06T18:36:59.300Z,2.90
2023-10-06T18:39:29.033Z,3.07
2023-10-06T18:42:02.512Z,3.30
2023-10-06T18:44:31.989Z,3.00
2023-10-06T18:47:11.125Z,2.40
2023-10-06T18:49:41.006Z,2.70
2023-10-06T18:52:25.043Z,3.50
2023-10-06T18:55:02.033Z,3.83
2023-10-06T18:57:30.897Z,4.63
2023-10-06T18:59:59.651Z,4.27
2023-10-06T19:02:39.065Z,4.53
2023-10-06T19:05:08.232Z,4.70
2023-10-06T19:07:37.132Z,4.10
2023-10-06T19:10:10.839Z,3.40
2023-10-06T19:12:41.101Z,2.70
2023-10-06T19:15:10.596Z,2.50
2023-10-06T19:17:40.780Z,2.80
2023-10-06T19:20:13.131Z,2.60
2023-10-06T19:22:41.736Z,2.90
2023-10-06T19:25:12.688Z,2.43
2023-10-06T19:27:42.286Z,2.27
2023-10-06T19:30:12.140Z,2.97
2023-10-06T19:32:41.205Z,2.17
2023-10-06T19:35:10.645Z,2.80
2023-10-06T19:37:42.392Z,2.43
2023-10-06T19:40:28.127Z,2.60
2023-10-06T19:42:57.244Z,3.30
2023-10-06T19:45:26.307Z,2.97
2023-10-06T19:47:55.859Z,3.73
2023-10-06T19:50:25.203Z,3.97
2023-10-06T19:53:01.785Z,5.73
2023-10-06T19:55:31.749Z,4.57
2023-10-06T20:00:45.013Z,5.00
2023-10-06T20:03:14.069Z,4.40
2023-10-06T20:05:45.393Z,3.23
2023-10-06T20:08:17.984Z,3.07
2023-10-06T20:11:01.863Z,3.67
2023-10-06T20:13:32.877Z,3.40
2023-10-06T20:16:01.312Z,3.50
2023-10-06T20:18:30.225Z,4.03
2023-10-06T20:21:02.713Z,3.97
2023-10-06T20:23:31.358Z,3.77
2023-10-06T20:26:02.367Z,4.10
2023-10-06T20:28:33.286Z,4.17
2023-10-06T20:31:04.861Z,3.80
2023-10-06T20:33:33.986Z,4.10
2023-10-06T20:36:03.133Z,4.43
2023-10-06T20:38:32.499Z,3.60
2023-10-06T20:41:03.833Z,4.37
2023-10-06T20:43:33.990Z,5.30
2023-10-06T20:46:06.424Z,3.37
2023-10-06T20:48:35.345Z,4.13
2023-10-06T20:51:06.694Z,3.73
2023-10-06T20:53:37.335Z,3.77
2023-10-06T20:56:08.028Z,3.90
2023-10-06T20:58:36.665Z,4.70
2023-10-06T21:01:14.570Z,3.90
2023-10-06T21:03:45.690Z,3.90
2023-10-06T21:06:15.349Z,4.27
2023-10-06T21:08:44.169Z,3.40
2023-10-06T21:11:16.780Z,3.73
2023-10-06T21:13:49.861Z,4.27
2023-10-06T21:16:18.402Z,4.33
2023-10-06T21:18:47.595Z,4.07
2023-10-06T21:21:23.634Z,3.33
2023-10-06T21:23:52.256Z,3.80
2023-10-06T21:26:26.909Z,4.10
2023-10-06T21:28:57.263Z,3.67
2023-10-06T21:31:26.052Z,3.50
2023-10-06T21:34:09.593Z,4.10
2023-10-06T21:36:38.368Z,4.03
2023-10-06T21:39:08.488Z,3.40
2023-10-06T21:41:37.339Z,3.90
2023-10-06T21:44:08.056Z,4.57
2023-10-06T21:46:36.660Z,4.90
2023-10-06T21:49:05.554Z,3.90
2023-10-06T21:51:35.014Z,4.37
2023-10-06T21:54:04.141Z,4.50
2023-10-06T21:56:32.652Z,4.03
2023-10-06T21:59:04.457Z,4.20
2023-10-06T22:01:35.727Z,3.90
2023-10-06T22:04:05.048Z,4.23
2023-10-06T22:06:34.075Z,4.37
2023-10-06T22:09:03.706Z,3.43
2023-10-06T22:11:32.497Z,4.47
2023-10-06T22:14:00.936Z,3.50
2023-10-06T22:16:29.699Z,4.40
2023-10-06T22:18:59.792Z,3.80
2023-10-06T22:21:28.370Z,3.90
2023-10-06T22:23:59.447Z,3.53
2023-10-06T22:26:28.911Z,3.50
2023-10-06T22:28:57.628Z,4.20
2023-10-06T22:31:26.381Z,4.47
2023-10-06T22:33:56.794Z,4.00
2023-10-06T22:36:27.032Z,4.23
2023-10-06T22:38:55.939Z,4.63
2023-10-06T22:41:24.897Z,3.90
2023-10-06T22:43:56.790Z,4.10
2023-10-06T22:46:25.591Z,4.50
2023-10-06T22:48:54.140Z,4.07
2023-10-06T22:51:23.629Z,4.30
2023-10-06T22:53:54.077Z,3.10
2023-10-06T22:56:23.423Z,3.50
2023-10-06T22:58:51.883Z,3.97
2023-10-06T23:01:20.629Z,3.90
2023-10-06T23:03:49.715Z,3.60
2023-10-06T23:06:18.759Z,3.63
2023-10-06T23:08:47.785Z,3.60
2023-10-06T23:11:21.235Z,3.70
2023-10-06T23:13:50.929Z,3.60
2023-10-06T23:16:19.689Z,3.33
2023-10-06T23:18:49.522Z,3.43
2023-10-06T23:21:19.296Z,4.00
2023-10-06T23:23:48.787Z,4.13
2023-10-06T23:26:19.297Z,3.43
2023-10-06T23:28:47.800Z,3.30
2023-10-06T23:31:17.347Z,4.27
2023-10-06T23:33:45.996Z,3.63
2023-10-06T23:36:14.603Z,4.03
2023-10-06T23:38:43.748Z,4.90
2023-10-06T23:41:13.401Z,4.27
2023-10-06T23:43:43.365Z,5.43
2023-10-06T23:46:16.650Z,4.20
2023-10-06T23:48:47.914Z,5.07
2023-10-06T23:51:17.615Z,5.80
2023-10-06T23:53:46.799Z,4.10
2023-10-06T23:56:31.848Z,4.17
2023-10-06T23:59:11.154Z,4.63
